地図

経路データ

SID SEASON NUMBER BASIN SUBBASIN NAME ISO_TIME NATURE LAT LON WMO_WIND WMO_PRES WMO_AGENCY TRACK_TYPE DIST2LAND LANDFALL IFLAG USA_AGENCY USA_ATCF_ID USA_LAT USA_LON USA_RECORD USA_STATUS USA_WIND USA_PRES USA_SSHS USA_R34_NE USA_R34_SE USA_R34_SW USA_R34_NW USA_R50_NE USA_R50_SE USA_R50_SW USA_R50_NW USA_R64_NE USA_R64_SE USA_R64_SW USA_R64_NW USA_POCI USA_ROCI USA_RMW USA_EYE TOKYO_LAT TOKYO_LON TOKYO_GRADE TOKYO_WIND TOKYO_PRES TOKYO_R50_DIR TOKYO_R50_LONG TOKYO_R50_SHORT TOKYO_R30_DIR TOKYO_R30_LONG TOKYO_R30_SHORT TOKYO_LAND CMA_LAT CMA_LON CMA_CAT CMA_WIND CMA_PRES HKO_LAT HKO_LON HKO_CAT HKO_WIND HKO_PRES NEWDELHI_LAT NEWDELHI_LON NEWDELHI_GRADE NEWDELHI_WIND NEWDELHI_PRES NEWDELHI_CI NEWDELHI_DP NEWDELHI_POCI REUNION_LAT REUNION_LON REUNION_TYPE REUNION_WIND REUNION_PRES REUNION_TNUM REUNION_CI REUNION_RMW REUNION_R34_NE REUNION_R34_SE REUNION_R34_SW REUNION_R34_NW REUNION_R50_NE REUNION_R50_SE REUNION_R50_SW REUNION_R50_NW REUNION_R64_NE REUNION_R64_SE REUNION_R64_SW REUNION_R64_NW BOM_LAT BOM_LON BOM_TYPE BOM_WIND BOM_PRES BOM_TNUM BOM_CI BOM_RMW BOM_R34_NE BOM_R34_SE BOM_R34_SW BOM_R34_NW BOM_R50_NE BOM_R50_SE BOM_R50_SW BOM_R50_NW BOM_R64_NE BOM_R64_SE BOM_R64_SW BOM_R64_NW BOM_ROCI BOM_POCI BOM_EYE BOM_POS_METHOD BOM_PRES_METHOD NADI_LAT NADI_LON NADI_CAT NADI_WIND NADI_PRES WELLINGTON_LAT WELLINGTON_LON WELLINGTON_WIND WELLINGTON_PRES DS824_LAT DS824_LON DS824_STAGE DS824_WIND DS824_PRES TD9636_LAT TD9636_LON TD9636_STAGE TD9636_WIND TD9636_PRES TD9635_LAT TD9635_LON TD9635_WIND TD9635_PRES TD9635_ROCI NEUMANN_LAT NEUMANN_LON NEUMANN_CLASS NEUMANN_WIND NEUMANN_PRES MLC_LAT MLC_LON MLC_CLASS MLC_WIND MLC_PRES USA_GUST BOM_GUST BOM_GUST_PER REUNION_GUST REUNION_GUST_PER USA_SEAHGT USA_SEARAD_NE USA_SEARAD_SE USA_SEARAD_SW USA_SEARAD_NW STORM_SPEED STORM_DIR
1977360S10069 1978 123 SI MM DULCINEE 1977-12-26 06:00:00 TS -10.0000 68.7000 20 1003 reunion main 1633 1633 _____O______O_ -1 -10.0000 68.7000 2 20 1003 1.50000 1.50000 -10.0000 68.7000 TC 25 1003 12 106
1977360S10069 1978 123 SI MM DULCINEE 1977-12-26 09:00:00 TS -10.1752 69.3074 main 1665 1665 _____P______P_ -1 -10.1752 69.3074 2 -10.1752 69.3074 TC 30 12 109
1977360S10069 1978 123 SI MM DULCINEE 1977-12-26 12:00:00 TS -10.4000 69.9000 reunion main 1699 1699 _____O______O_ -1 -10.4000 69.9000 99 9.90000 -10.4000 69.9000 TC 35 13 115
1977360S10069 1978 123 SI MM DULCINEE 1977-12-26 15:00:00 TS -10.7124 70.4651 main 1727 1720 _____P______P_ -1 -10.7124 70.4651 99 -10.7124 70.4651 TC 35 13 123
1977360S10069 1978 123 SI MM DULCINEE 1977-12-26 18:00:00 TS -11.1000 71.0000 reunion main 1743 1743 _____O______O_ -1 -11.1000 71.0000 99 9.90000 -11.1000 71.0000 TC 35 13 129
1977360S10069 1978 123 SI MM DULCINEE 1977-12-26 21:00:00 TS -11.5274 71.5077 main 1761 1754 _____P______P_ -1 -11.5274 71.5077 99 -11.5274 71.5077 TC 37 13 133
1977360S10069 1978 123 SI MM DULCINEE 1977-12-27 00:00:00 TS -12.0000 72.0000 reunion main 1775 1775 _____O______O_ -1 -12.0000 72.0000 99 9.90000 -12.0000 72.0000 TC 40 15 135
1977360S10069 1978 123 SI MM DULCINEE 1977-12-27 03:00:00 TS -12.5526 72.5596 main 1796 1796 _____P______P_ -1 -12.5526 72.5596 99 -12.5526 72.5596 TC 37 14 136
1977360S10069 1978 123 SI MM DULCINEE 1977-12-27 06:00:00 TS -13.0000 73.0000 28 997 reunion main 1812 1812 _____O______O_ -1 -13.0000 73.0000 2 28 997 2.50000 2.50000 -13.0000 73.0000 TC 35 997 8 136
1977360S10069 1978 123 SI MM DULCINEE 1977-12-27 09:00:00 TS -13.1523 73.1603 main 1820 1820 _____P______P_ -1 -13.1523 73.1603 2 -13.1523 73.1603 TC 37 3 136
1977360S10069 1978 123 SI MM DULCINEE 1977-12-27 12:00:00 TS -13.2000 73.2000 reunion main 1820 1815 _____O______O_ -1 -13.2000 73.2000 99 9.90000 -13.2000 73.2000 TC 40 2 144
1977360S10069 1978 123 SI MM DULCINEE 1977-12-27 15:00:00 TS -13.3425 73.3000 main 1825 1820 _____P______P_ -1 -13.3425 73.3000 99 -13.3425 73.3000 TC 37 4 147
1977360S10069 1978 123 SI MM DULCINEE 1977-12-27 18:00:00 TS -13.5000 73.4000 reunion main 1824 1819 _____O______O_ -1 -13.5000 73.4000 99 9.90000 -13.5000 73.4000 TC 35 4 148
1977360S10069 1978 123 SI MM DULCINEE 1977-12-27 21:00:00 TS -13.6575 73.5075 main 1824 1824 _____P______P_ -1 -13.6575 73.5075 99 -13.6575 73.5075 TC 35 4 147
1977360S10069 1978 123 SI MM DULCINEE 1977-12-28 00:00:00 TS -13.8000 73.6000 reunion main 1829 1824 _____O______O_ -1 -13.8000 73.6000 99 9.90000 -13.8000 73.6000 TC 35 3 152
1977360S10069 1978 123 SI MM DULCINEE 1977-12-28 03:00:00 TS -13.9150 73.6500 main 1834 1829 _____P______P_ -1 -13.9150 73.6500 99 -13.9150 73.6500 TC 32 2 153
1977360S10069 1978 123 SI MM DULCINEE 1977-12-28 06:00:00 TS -14.0000 73.7000 reunion main 1829 1829 _____O______O_ -1 -14.0000 73.7000 6 9.90000 -14.0000 73.7000 TC 30 2 129
1977360S10069 1978 123 SI MM DULCINEE 1977-12-28 09:00:00 TS -14.0350 73.8000 main 1839 1834 _____P______P_ -1 -14.0350 73.8000 6 -14.0350 73.8000 TC 30 2 117
1977360S10069 1978 123 SI MM DULCINEE 1977-12-28 12:00:00 TS -14.1000 73.9000 reunion main 1844 1839 _____O______O_ -1 -14.1000 73.9000 99 9.90000 -14.1000 73.9000 TC 30 3 147
1977360S10069 1978 123 SI MM DULCINEE 1977-12-28 15:00:00 TS -14.2775 73.9575 main 1845 1836 _____P______P_ -1 -14.2775 73.9575 99 -14.2775 73.9575 TC 30 4 167
1977360S10069 1978 123 SI MM DULCINEE 1977-12-28 18:00:00 TS -14.5000 74.0000 reunion main 1836 1827 _____O______O_ -1 -14.5000 74.0000 99 9.90000 -14.5000 74.0000 TC 30 5 169
1977360S10069 1978 123 SI MM DULCINEE 1977-12-28 21:00:00 TS -14.7225 74.0425 main 1827 1827 _____P______P_ -1 -14.7225 74.0425 99 -14.7225 74.0425 TC 27 4 167
1977360S10069 1978 123 SI MM DULCINEE 1977-12-29 00:00:00 TS -14.9000 74.1000 reunion main 1829 1825 _____O______O_ -1 -14.9000 74.1000 99 9.90000 -14.9000 74.1000 TC 25 3 151
1977360S10069 1978 123 SI MM DULCINEE 1977-12-29 03:00:00 TS -14.9800 74.1900 main 1835 1835 _____P______P_ -1 -14.9800 74.1900 99 -14.9800 74.1900 TC 22 2 117
1977360S10069 1978 123 SI MM DULCINEE 1977-12-29 06:00:00 TS -15.0000 74.3000 reunion main 1845 _____O______O_ -1 -15.0000 74.3000 6 9.90000 -15.0000 74.3000 TC 20 2 101

IBTrACS Databaseについて

本データベースは、米国NOAAが公開する1842年以降の世界の熱帯低気圧のベストトラックデータアーカイブInternational Best Track Archive for Climate Stewardship (IBTrACS)を、ウェブで閲覧しやすい形式に変換したものです。

最終更新日:2021-12-06